Time,TemperatureF,DewpointF,PressureIn,WindDirection,WindDirectionDegrees,WindSpeedMPH,WindSpeedGustMPH,Humidity,HourlyPrecipIn,Conditions,Clouds,dailyrainin,SoftwareType,DateUTC
2013-05-20 00:01:00,67.3,65.2,30.14,ESE,111,2.0,2.0,93,0.00,,,0.00,Wunderground v.1.15,2013-05-20 04:01:00,
2013-05-20 00:03:00,67.3,65.2,30.14,ESE,111,2.0,2.0,93,0.00,,,0.00,Wunderground v.1.15,2013-05-20 04:03:00,
2013-05-20 00:05:00,67.3,65.2,30.13,NE,43,2.0,2.0,93,0.00,,,0.00,Wunderground v.1.15,2013-05-20 04:05:00,
2013-05-20 00:06:00,67.3,65.2,30.13,NE,55,3.0,3.0,93,0.00,,,0.00,Wunderground v.1.15,2013-05-20 04:06:00,
2013-05-20 00:08:00,67.3,65.2,30.14,NE,56,1.0,3.0,93,0.00,,,0.00,Wunderground v.1.15,2013-05-20 04:08:00,
2013-05-20 00:14:00,67.4,65.3,30.13,NE,56,1.0,1.0,93,0.00,,,0.00,Wunderground v.1.15,2013-05-20 04:14:00,
2013-05-20 00:20:00,67.4,65.3,30.13,ENE,68,0.0,1.0,93,0.00,,,0.00,Wunderground v.1.15,2013-05-20 04:20:00,
2013-05-20 00:26:00,67.4,65.3,30.13,ENE,72,0.0,1.0,93,0.00,,,0.00,Wunderground v.1.15,2013-05-20 04:26:00,
2013-05-20 00:32:00,67.3,65.2,30.12,ENE,72,0.0,1.0,93,0.00,,,0.00,Wunderground v.1.15,2013-05-20 04:32:00,
2013-05-20 00:38:00,67.2,65.1,30.12,ENE,72,0.0,1.0,93,0.00,,,0.00,Wunderground v.1.15,2013-05-20 04:38:00,
2013-05-20 00:43:00,67.0,65.2,30.12,ENE,72,0.0,0.0,94,0.00,,,0.00,Wunderground v.1.15,2013-05-20 04:43:00,
2013-05-20 00:49:00,67.0,65.2,30.12,ESE,110,1.0,2.0,94,0.00,,,0.00,Wunderground v.1.15,2013-05-20 04:49:00,
2013-05-20 00:55:00,66.9,65.1,30.12,ESE,110,0.0,0.0,94,0.00,,,0.00,Wunderground v.1.15,2013-05-20 04:55:00,
2013-05-20 01:01:00,66.8,65.0,30.12,ESE,110,0.0,0.0,94,0.00,,,0.00,Wunderground v.1.15,2013-05-20 05:01:00,
2013-05-20 01:06:00,66.7,64.9,30.12,ESE,110,0.0,0.0,94,0.00,,,0.00,Wunderground v.1.15,2013-05-20 05:06:00,
2013-05-20 01:12:00,66.7,64.9,30.12,ESE,110,0.0,0.0,94,0.00,,,0.00,Wunderground v.1.15,2013-05-20 05:12:00,
2013-05-20 01:18:00,66.6,65.1,30.11,ESE,110,0.0,0.0,95,0.00,,,0.00,Wunderground v.1.15,2013-05-20 05:18:00,
2013-05-20 01:24:00,66.4,64.9,30.11,ESE,110,0.0,0.0,95,0.00,,,0.00,Wunderground v.1.15,2013-05-20 05:24:00,
2013-05-20 01:30:00,66.3,64.8,30.11,ESE,110,0.0,0.0,95,0.00,,,0.00,Wunderground v.1.15,2013-05-20 05:30:00,
2013-05-20 01:36:00,66.3,64.8,30.11,ESE,110,0.0,0.0,95,0.00,,,0.00,Wunderground v.1.15,2013-05-20 05:36:00,
2013-05-20 01:42:00,66.3,64.8,30.10,ESE,110,0.0,0.0,95,0.00,,,0.00,Wunderground v.1.15,2013-05-20 05:42:00,
2013-05-20 01:48:00,66.2,65.0,30.10,ESE,110,0.0,0.0,96,0.00,,,0.00,Wunderground v.1.15,2013-05-20 05:48:00,
2013-05-20 01:54:00,66.1,64.6,30.09,ESE,110,0.0,0.0,95,0.00,,,0.00,Wunderground v.1.15,2013-05-20 05:54:00,
2013-05-20 02:00:00,66.0,64.5,30.09,ESE,110,0.0,0.0,95,0.00,,,0.00,Wunderground v.1.15,2013-05-20 06:00:00,
2013-05-20 02:05:00,65.9,64.7,30.09,ESE,110,0.0,2.0,96,0.00,,,0.00,Wunderground v.1.15,2013-05-20 06:05:00,
2013-05-20 02:10:00,65.7,64.5,30.09,ESE,110,0.0,0.0,96,0.00,,,0.00,Wunderground v.1.15,2013-05-20 06:10:00,
2013-05-20 02:15:00,65.6,64.4,30.08,ESE,110,0.0,1.0,96,0.00,,,0.00,Wunderground v.1.15,2013-05-20 06:15:00,
2013-05-20 02:20:00,65.6,64.4,30.08,SSW,204,0.0,0.0,96,0.00,,,0.00,Wunderground v.1.15,2013-05-20 06:20:00,
2013-05-20 02:25:00,65.5,64.3,30.08,WSW,254,0.0,3.0,96,0.00,,,0.00,Wunderground v.1.15,2013-05-20 06:25:00,
2013-05-20 02:30:00,65.4,64.2,30.08,WSW,254,0.0,0.0,96,0.00,,,0.00,Wunderground v.1.15,2013-05-20 06:30:00,
2013-05-20 02:35:00,65.4,64.2,30.08,WSW,254,0.0,1.0,96,0.00,,,0.00,Wunderground v.1.15,2013-05-20 06:35:00,
2013-05-20 02:40:00,65.3,64.1,30.09,WSW,254,0.0,0.0,96,0.00,,,0.00,Wunderground v.1.15,2013-05-20 06:40:00,
2013-05-20 02:45:00,65.3,64.1,30.08,WSW,254,0.0,0.0,96,0.00,,,0.00,Wunderground v.1.15,2013-05-20 06:45:00,
2013-05-20 02:50:00,65.0,63.8,30.08,WSW,254,0.0,0.0,96,0.00,,,0.00,Wunderground v.1.15,2013-05-20 06:50:00,
2013-05-20 02:55:00,64.9,63.7,30.08,WSW,254,0.0,1.0,96,0.00,,,0.00,Wunderground v.1.15,2013-05-20 06:55:00,
2013-05-20 03:00:00,64.8,63.6,30.08,WSW,254,0.0,0.0,96,0.00,,,0.00,Wunderground v.1.15,2013-05-20 07:00:00,
2013-05-20 03:05:00,64.7,63.5,30.08,WSW,254,0.0,0.0,96,0.00,,,0.00,Wunderground v.1.15,2013-05-20 07:05:00,
2013-05-20 03:10:00,64.7,63.8,30.08,WSW,254,0.0,0.0,97,0.00,,,0.00,Wunderground v.1.15,2013-05-20 07:10:00,
2013-05-20 03:15:00,64.8,63.9,30.09,WSW,254,0.0,0.0,97,0.00,,,0.00,Wunderground v.1.15,2013-05-20 07:15:00,
2013-05-20 03:20:00,64.9,64.0,30.09,WSW,254,0.0,0.0,97,0.00,,,0.00,Wunderground v.1.15,2013-05-20 07:20:00,
2013-05-20 03:25:00,64.9,64.0,30.08,WSW,254,0.0,0.0,97,0.00,,,0.00,Wunderground v.1.15,2013-05-20 07:25:00,
2013-05-20 03:30:00,65.0,64.1,30.08,WSW,254,0.0,0.0,97,0.00,,,0.00,Wunderground v.1.15,2013-05-20 07:30:00,
2013-05-20 03:35:00,65.2,64.3,30.08,WSW,254,0.0,1.0,97,0.00,,,0.00,Wunderground v.1.15,2013-05-20 07:35:00,
2013-05-20 03:40:00,65.2,64.3,30.08,WSW,254,0.0,0.0,97,0.00,,,0.00,Wunderground v.1.15,2013-05-20 07:40:00,
2013-05-20 03:45:00,65.2,64.3,30.08,WSW,254,0.0,0.0,97,0.00,,,0.00,Wunderground v.1.15,2013-05-20 07:45:00,
2013-05-20 03:50:00,65.2,64.3,30.08,WSW,254,0.0,0.0,97,0.00,,,0.00,Wunderground v.1.15,2013-05-20 07:50:00,
2013-05-20 03:55:00,65.2,64.3,30.08,WSW,254,0.0,1.0,97,0.00,,,0.00,Wunderground v.1.15,2013-05-20 07:55:00,
2013-05-20 04:00:00,65.3,64.4,30.08,WSW,254,0.0,0.0,97,0.00,,,0.00,Wunderground v.1.15,2013-05-20 08:00:00,
2013-05-20 04:05:00,65.3,64.4,30.08,WSW,254,0.0,0.0,97,0.00,,,0.00,Wunderground v.1.15,2013-05-20 08:05:00,
2013-05-20 04:10:00,65.3,64.4,30.08,WSW,254,0.0,1.0,97,0.00,,,0.00,Wunderground v.1.15,2013-05-20 08:10:00,
2013-05-20 04:15:00,65.2,64.3,30.08,WSW,254,1.0,1.0,97,0.00,,,0.00,Wunderground v.1.15,2013-05-20 08:15:00,
2013-05-20 04:20:00,65.1,64.2,30.08,WSW,254,0.0,1.0,97,0.00,,,0.00,Wunderground v.1.15,2013-05-20 08:20:00,
2013-05-20 04:25:00,65.2,64.3,30.08,WSW,254,1.0,2.0,97,0.00,,,0.00,Wunderground v.1.15,2013-05-20 08:25:00,
2013-05-20 04:31:00,65.3,64.4,30.08,WSW,254,1.0,2.0,97,0.00,,,0.00,Wunderground v.1.15,2013-05-20 08:31:00,
2013-05-20 04:36:00,65.4,64.2,30.08,WSW,254,1.0,2.0,96,0.00,,,0.00,Wunderground v.1.15,2013-05-20 08:36:00,
2013-05-20 04:41:00,65.5,64.3,30.08,WSW,254,0.0,2.0,96,0.00,,,0.00,Wunderground v.1.15,2013-05-20 08:41:00,
2013-05-20 04:46:00,65.5,64.3,30.08,SSE,151,1.0,4.0,96,0.00,,,0.00,Wunderground v.1.15,2013-05-20 08:46:00,
2013-05-20 04:51:00,65.6,64.4,30.08,SSE,151,1.0,1.0,96,0.00,,,0.00,Wunderground v.1.15,2013-05-20 08:51:00,
2013-05-20 04:56:00,65.7,64.5,30.08,SSE,151,0.0,3.0,96,0.00,,,0.00,Wunderground v.1.15,2013-05-20 08:56:00,
2013-05-20 05:01:00,65.7,64.5,30.08,South,185,1.0,1.0,96,0.00,,,0.00,Wunderground v.1.15,2013-05-20 09:01:00,
2013-05-20 05:06:00,65.7,64.5,30.08,South,185,0.0,2.0,96,0.00,,,0.00,Wunderground v.1.15,2013-05-20 09:06:00,
2013-05-20 05:11:00,65.8,64.6,30.08,South,185,1.0,2.0,96,0.00,,,0.00,Wunderground v.1.15,2013-05-20 09:11:00,
2013-05-20 05:16:00,65.7,64.5,30.08,South,185,1.0,2.0,96,0.00,,,0.00,Wunderground v.1.15,2013-05-20 09:16:00,
2013-05-20 05:21:00,65.6,64.4,30.08,South,185,0.0,1.0,96,0.00,,,0.00,Wunderground v.1.15,2013-05-20 09:21:00,
2013-05-20 05:26:00,65.7,64.5,30.08,SW,225,1.0,4.0,96,0.00,,,0.00,Wunderground v.1.15,2013-05-20 09:26:00,
2013-05-20 05:31:00,65.7,64.5,30.08,WSW,242,0.0,1.0,96,0.00,,,0.00,Wunderground v.1.15,2013-05-20 09:31:00,
2013-05-20 05:36:00,65.7,64.5,30.08,SW,236,3.0,3.0,96,0.00,,,0.00,Wunderground v.1.15,2013-05-20 09:36:00,
2013-05-20 05:41:00,65.7,64.5,30.08,NW,325,2.0,2.0,96,0.00,,,0.00,Wunderground v.1.15,2013-05-20 09:41:00,
2013-05-20 05:46:00,65.8,64.6,30.08,SSW,192,2.0,4.0,96,0.00,,,0.00,Wunderground v.1.15,2013-05-20 09:46:00,
2013-05-20 05:51:00,65.8,64.6,30.08,SSW,200,3.0,4.0,96,0.00,,,0.00,Wunderground v.1.15,2013-05-20 09:51:00,
2013-05-20 05:56:00,65.8,64.6,30.08,SSW,213,2.0,4.0,96,0.00,,,0.00,Wunderground v.1.15,2013-05-20 09:56:00,
2013-05-20 06:01:00,65.7,64.5,30.09,SSW,195,0.0,2.0,96,0.00,,,0.00,Wunderground v.1.15,2013-05-20 10:01:00,
2013-05-20 06:06:00,65.7,64.5,30.08,SSW,210,1.0,4.0,96,0.00,,,0.00,Wunderground v.1.15,2013-05-20 10:06:00,
2013-05-20 06:11:00,65.7,64.5,30.09,WSW,244,2.0,3.0,96,0.00,,,0.00,Wunderground v.1.15,2013-05-20 10:11:00,
2013-05-20 06:17:00,65.7,64.5,30.09,West,273,1.0,5.0,96,0.00,,,0.00,Wunderground v.1.15,2013-05-20 10:17:00,
2013-05-20 06:22:00,65.7,64.5,30.08,SW,221,0.0,3.0,96,0.00,,,0.00,Wunderground v.1.15,2013-05-20 10:22:00,
2013-05-20 06:27:00,65.7,64.5,30.08,SW,221,0.0,3.0,96,0.00,,,0.00,Wunderground v.1.15,2013-05-20 10:27:00,
2013-05-20 06:32:00,65.7,64.5,30.09,SW,221,0.0,2.0,96,0.00,,,0.00,Wunderground v.1.15,2013-05-20 10:32:00,
2013-05-20 06:37:00,65.8,64.6,30.08,SW,221,0.0,2.0,96,0.00,,,0.00,Wunderground v.1.15,2013-05-20 10:37:00,
2013-05-20 06:42:00,65.7,64.5,30.09,SW,226,1.0,2.0,96,0.00,,,0.00,Wunderground v.1.15,2013-05-20 10:42:00,
2013-05-20 06:47:00,65.7,64.5,30.09,SW,221,3.0,4.0,96,0.00,,,0.00,Wunderground v.1.15,2013-05-20 10:47:00,
2013-05-20 06:52:00,65.7,64.5,30.09,WSW,242,0.0,3.0,96,0.00,,,0.00,Wunderground v.1.15,2013-05-20 10:52:00,
2013-05-20 06:57:00,65.8,64.6,30.10,SW,215,0.0,4.0,96,0.00,,,0.00,Wunderground v.1.15,2013-05-20 10:57:00,
2013-05-20 07:02:00,65.9,64.7,30.10,SSE,153,0.0,3.0,96,0.00,,,0.00,Wunderground v.1.15,2013-05-20 11:02:00,
2013-05-20 07:07:00,65.8,64.6,30.10,SSW,197,1.0,4.0,96,0.00,,,0.00,Wunderground v.1.15,2013-05-20 11:07:00,
2013-05-20 07:12:00,65.9,64.7,30.10,SSW,205,3.0,5.0,96,0.00,,,0.00,Wunderground v.1.15,2013-05-20 11:12:00,
2013-05-20 07:17:00,65.9,64.7,30.10,SSW,199,4.0,5.0,96,0.00,,,0.00,Wunderground v.1.15,2013-05-20 11:17:00,
2013-05-20 07:22:00,65.9,64.7,30.10,SW,215,0.0,4.0,96,0.00,,,0.00,Wunderground v.1.15,2013-05-20 11:22:00,
2013-05-20 07:27:00,66.1,64.6,30.11,SSW,204,0.0,4.0,95,0.00,,,0.00,Wunderground v.1.15,2013-05-20 11:27:00,
2013-05-20 07:32:00,66.3,65.1,30.11,SSW,204,2.0,3.0,96,0.00,,,0.00,Wunderground v.1.15,2013-05-20 11:32:00,
2013-05-20 07:38:00,66.2,64.7,30.11,SW,219,1.0,5.0,95,0.00,,,0.00,Wunderground v.1.15,2013-05-20 11:38:00,
2013-05-20 07:43:00,66.3,65.1,30.11,SSW,213,0.0,5.0,96,0.00,,,0.00,Wunderground v.1.15,2013-05-20 11:43:00,
2013-05-20 07:48:00,66.3,65.1,30.11,West,276,0.0,5.0,96,0.00,,,0.00,Wunderground v.1.15,2013-05-20 11:48:00,
2013-05-20 07:53:00,66.3,65.1,30.11,West,276,0.0,1.0,96,0.00,,,0.00,Wunderground v.1.15,2013-05-20 11:53:00,
2013-05-20 07:58:00,66.2,65.0,30.11,West,276,1.0,1.0,96,0.00,,,0.00,Wunderground v.1.15,2013-05-20 11:58:00,
2013-05-20 08:03:00,66.3,65.1,30.11,SW,221,2.0,5.0,96,0.00,,,0.00,Wunderground v.1.15,2013-05-20 12:03:00,
2013-05-20 08:08:00,66.2,65.0,30.11,SW,221,0.0,5.0,96,0.00,,,0.00,Wunderground v.1.15,2013-05-20 12:08:00,
2013-05-20 08:13:00,66.2,65.0,30.11,SW,219,0.0,4.0,96,0.00,,,0.00,Wunderground v.1.15,2013-05-20 12:13:00,
2013-05-20 08:18:00,66.3,65.1,30.11,SSW,213,1.0,4.0,96,0.00,,,0.00,Wunderground v.1.15,2013-05-20 12:18:00,
2013-05-20 08:23:00,66.4,65.2,30.11,SW,215,1.0,4.0,96,0.00,,,0.00,Wunderground v.1.15,2013-05-20 12:23:00,
2013-05-20 08:28:00,66.4,65.2,30.11,SW,215,1.0,4.0,96,0.00,,,0.00,Wunderground v.1.15,2013-05-20 12:28:00,
2013-05-20 08:33:00,66.5,65.3,30.11,SW,219,0.0,3.0,96,0.00,,,0.00,Wunderground v.1.15,2013-05-20 12:33:00,
2013-05-20 08:39:00,66.6,65.4,30.11,SW,215,2.0,4.0,96,0.00,,,0.00,Wunderground v.1.15,2013-05-20 12:39:00,
2013-05-20 08:44:00,66.6,65.4,30.11,SW,215,0.0,4.0,96,0.00,,,0.00,Wunderground v.1.15,2013-05-20 12:44:00,
2013-05-20 08:49:00,66.9,65.7,30.11,SW,215,1.0,4.0,96,0.00,,,0.00,Wunderground v.1.15,2013-05-20 12:49:00,
2013-05-20 08:54:00,67.2,66.0,30.11,SW,215,0.0,3.0,96,0.00,,,0.00,Wunderground v.1.15,2013-05-20 12:54:00,
2013-05-20 08:59:00,67.1,65.6,30.11,SW,215,0.0,3.0,95,0.00,,,0.00,Wunderground v.1.15,2013-05-20 12:59:00,
2013-05-20 09:04:00,67.2,65.7,30.11,SW,215,1.0,3.0,95,0.00,,,0.00,Wunderground v.1.15,2013-05-20 13:04:00,
2013-05-20 09:09:00,67.2,65.7,30.11,SW,215,2.0,4.0,95,0.00,,,0.00,Wunderground v.1.15,2013-05-20 13:09:00,
2013-05-20 09:14:00,67.5,66.0,30.11,SW,215,0.0,3.0,95,0.00,,,0.00,Wunderground v.1.15,2013-05-20 13:14:00,
2013-05-20 09:19:00,67.5,66.0,30.11,SW,215,1.0,3.0,95,0.00,,,0.00,Wunderground v.1.15,2013-05-20 13:19:00,
2013-05-20 09:24:00,67.6,66.1,30.10,SW,215,1.0,2.0,95,0.00,,,0.00,Wunderground v.1.15,2013-05-20 13:24:00,
2013-05-20 09:29:00,67.8,66.3,30.11,SW,215,2.0,3.0,95,0.00,,,0.00,Wunderground v.1.15,2013-05-20 13:29:00,
2013-05-20 09:34:00,67.9,66.4,30.11,SW,215,2.0,2.0,95,0.00,,,0.00,Wunderground v.1.15,2013-05-20 13:34:00,
2013-05-20 09:39:00,67.8,66.0,30.11,SW,214,0.0,4.0,94,0.00,,,0.00,Wunderground v.1.15,2013-05-20 13:39:00,
2013-05-20 09:44:00,67.7,66.2,30.11,SW,214,0.0,3.0,95,0.00,,,0.00,Wunderground v.1.15,2013-05-20 13:44:00,
2013-05-20 09:49:00,67.9,66.4,30.11,SSW,207,1.0,3.0,95,0.00,,,0.00,Wunderground v.1.15,2013-05-20 13:49:00,
2013-05-20 09:54:00,67.9,66.4,30.10,SSW,207,0.0,2.0,95,0.00,,,0.00,Wunderground v.1.15,2013-05-20 13:54:00,
2013-05-20 09:59:00,68.0,66.5,30.11,SW,216,0.0,5.0,95,0.00,,,0.00,Wunderground v.1.15,2013-05-20 13:59:00,
2013-05-20 10:04:00,68.2,66.7,30.11,SW,216,1.0,3.0,95,0.00,,,0.00,Wunderground v.1.15,2013-05-20 14:04:00,
2013-05-20 10:09:00,68.0,66.5,30.11,SW,216,0.0,3.0,95,0.00,,,0.00,Wunderground v.1.15,2013-05-20 14:09:00,
2013-05-20 10:14:00,68.1,66.3,30.11,SW,215,2.0,3.0,94,0.00,,,0.00,Wunderground v.1.15,2013-05-20 14:14:00,
2013-05-20 10:20:00,68.0,66.2,30.11,SW,215,0.0,1.0,94,0.00,,,0.00,Wunderground v.1.15,2013-05-20 14:20:00,
2013-05-20 10:25:00,68.2,66.4,30.11,SW,215,2.0,3.0,94,0.00,,,0.00,Wunderground v.1.15,2013-05-20 14:25:00,
2013-05-20 10:30:00,68.2,66.4,30.12,SW,215,1.0,1.0,94,0.00,,,0.00,Wunderground v.1.15,2013-05-20 14:30:00,
2013-05-20 10:35:00,68.5,66.7,30.12,SW,215,1.0,3.0,94,0.00,,,0.00,Wunderground v.1.15,2013-05-20 14:35:00,
2013-05-20 10:40:00,69.1,67.3,30.12,SW,215,1.0,1.0,94,0.00,,,0.00,Wunderground v.1.15,2013-05-20 14:40:00,
2013-05-20 10:45:00,69.2,67.1,30.11,SW,215,1.0,2.0,93,0.00,,,0.00,Wunderground v.1.15,2013-05-20 14:45:00,
2013-05-20 10:50:00,69.8,67.4,30.10,SW,215,1.0,1.0,92,0.00,,,0.00,Wunderground v.1.15,2013-05-20 14:50:00,
2013-05-20 10:55:00,70.1,67.3,30.11,SW,215,0.0,1.0,91,0.00,,,0.00,Wunderground v.1.15,2013-05-20 14:55:00,
2013-05-20 11:00:00,70.9,68.1,30.10,SSW,209,0.0,1.0,91,0.00,,,0.00,Wunderground v.1.15,2013-05-20 15:00:00,
2013-05-20 11:05:00,71.1,67.7,30.10,SW,216,2.0,7.0,89,0.00,,,0.00,Wunderground v.1.15,2013-05-20 15:05:00,
2013-05-20 11:10:00,71.2,67.5,30.10,SE,142,0.0,2.0,88,0.00,,,0.00,Wunderground v.1.15,2013-05-20 15:10:00,
2013-05-20 11:15:00,71.0,67.6,30.10,SW,217,3.0,3.0,89,0.00,,,0.00,Wunderground v.1.15,2013-05-20 15:15:00,
2013-05-20 11:20:00,71.3,67.9,30.10,North,351,1.0,1.0,89,0.00,,,0.00,Wunderground v.1.15,2013-05-20 15:20:00,
2013-05-20 11:25:00,72.1,68.0,30.10,SSW,207,3.0,7.0,87,0.00,,,0.00,Wunderground v.1.15,2013-05-20 15:25:00,
2013-05-20 11:30:00,72.0,67.9,30.10,SSW,208,3.0,5.0,87,0.00,,,0.00,Wunderground v.1.15,2013-05-20 15:30:00,
2013-05-20 11:35:00,72.2,67.4,30.10,SSW,212,0.0,5.0,85,0.00,,,0.00,Wunderground v.1.15,2013-05-20 15:35:00,
2013-05-20 11:41:00,72.1,67.7,30.09,SSW,197,0.0,2.0,86,0.00,,,0.00,Wunderground v.1.15,2013-05-20 15:41:00,
2013-05-20 11:46:00,72.2,68.1,30.09,South,188,1.0,4.0,87,0.00,,,0.00,Wunderground v.1.15,2013-05-20 15:46:00,
2013-05-20 11:51:00,72.2,68.1,30.09,South,188,1.0,1.0,87,0.00,,,0.00,Wunderground v.1.15,2013-05-20 15:51:00,
2013-05-20 11:56:00,72.2,68.1,30.09,South,188,0.0,2.0,87,0.00,,,0.00,Wunderground v.1.15,2013-05-20 15:56:00,
2013-05-20 12:01:00,72.5,68.4,30.09,South,188,0.0,1.0,87,0.00,,,0.00,Wunderground v.1.15,2013-05-20 16:01:00,
2013-05-20 12:06:00,72.1,67.7,30.09,SW,214,1.0,6.0,86,0.00,,,0.00,Wunderground v.1.15,2013-05-20 16:06:00,
2013-05-20 12:11:00,71.8,67.7,30.08,SW,215,0.0,2.0,87,0.00,,,0.00,Wunderground v.1.15,2013-05-20 16:11:00,
2013-05-20 12:16:00,71.9,68.2,30.08,SW,215,0.0,2.0,88,0.00,,,0.00,Wunderground v.1.15,2013-05-20 16:16:00,
2013-05-20 12:21:00,72.8,68.7,30.08,SSW,211,0.0,1.0,87,0.00,,,0.00,Wunderground v.1.15,2013-05-20 16:21:00,
2013-05-20 12:26:00,73.4,68.6,30.08,SSW,211,0.0,1.0,85,0.00,,,0.00,Wunderground v.1.15,2013-05-20 16:26:00,
2013-05-20 12:31:00,73.1,68.3,30.08,SSW,211,3.0,5.0,85,0.00,,,0.00,Wunderground v.1.15,2013-05-20 16:31:00,
2013-05-20 12:36:00,72.7,67.9,30.08,SW,214,2.0,5.0,85,0.00,,,0.00,Wunderground v.1.15,2013-05-20 16:36:00,
2013-05-20 12:41:00,72.7,68.3,30.08,NE,56,0.0,1.0,86,0.00,,,0.00,Wunderground v.1.15,2013-05-20 16:41:00,
2013-05-20 12:46:00,73.1,68.7,30.08,NE,56,0.0,1.0,86,0.00,,,0.00,Wunderground v.1.15,2013-05-20 16:46:00,
2013-05-20 12:51:00,73.2,68.4,30.08,NE,56,0.0,1.0,85,0.00,,,0.00,Wunderground v.1.15,2013-05-20 16:51:00,
2013-05-20 12:56:00,73.3,68.9,30.08,South,179,2.0,2.0,86,0.00,,,0.00,Wunderground v.1.15,2013-05-20 16:56:00,
2013-05-20 13:01:00,73.0,68.6,30.08,South,179,1.0,1.0,86,0.00,,,0.00,Wunderground v.1.15,2013-05-20 17:01:00,
2013-05-20 13:06:00,72.9,68.1,30.08,South,179,0.0,2.0,85,0.00,,,0.00,Wunderground v.1.15,2013-05-20 17:06:00,
2013-05-20 13:11:00,73.6,69.5,30.08,SSW,196,3.0,3.0,87,0.00,,,0.00,Wunderground v.1.15,2013-05-20 17:11:00,
2013-05-20 13:16:00,75.4,69.9,30.07,South,174,7.0,7.0,83,0.00,,,0.00,Wunderground v.1.15,2013-05-20 17:16:00,
2013-05-20 13:21:00,74.7,68.5,30.07,SSW,193,1.0,3.0,81,0.00,,,0.00,Wunderground v.1.15,2013-05-20 17:21:00,
2013-05-20 13:26:00,74.8,69.3,30.07,SSW,205,2.0,6.0,83,0.00,,,0.00,Wunderground v.1.15,2013-05-20 17:26:00,
2013-05-20 13:31:00,75.0,69.1,30.07,SSW,203,2.0,2.0,82,0.00,,,0.00,Wunderground v.1.15,2013-05-20 17:31:00,
2013-05-20 13:36:00,75.7,70.5,30.07,South,187,1.0,4.0,84,0.00,,,0.00,Wunderground v.1.15,2013-05-20 17:36:00,
2013-05-20 13:41:00,76.4,70.1,30.06,SSE,159,0.0,3.0,81,0.00,,,0.00,Wunderground v.1.15,2013-05-20 17:41:00,
2013-05-20 13:46:00,77.0,71.1,30.06,SSW,204,3.0,5.0,82,0.00,,,0.00,Wunderground v.1.15,2013-05-20 17:46:00,
2013-05-20 13:51:00,77.0,70.4,30.06,WSW,244,0.0,1.0,80,0.00,,,0.00,Wunderground v.1.15,2013-05-20 17:51:00,
2013-05-20 13:56:00,76.9,69.5,30.06,SSW,205,0.0,2.0,78,0.00,,,0.00,Wunderground v.1.15,2013-05-20 17:56:00,
2013-05-20 14:01:00,76.3,69.7,30.06,SSW,194,3.0,3.0,80,0.00,,,0.00,Wunderground v.1.15,2013-05-20 18:01:00,
2013-05-20 14:06:00,77.3,70.6,30.06,SSW,198,2.0,3.0,80,0.00,,,0.00,Wunderground v.1.15,2013-05-20 18:06:00,
2013-05-20 14:11:00,76.6,70.7,30.06,South,181,0.0,1.0,82,0.00,,,0.00,Wunderground v.1.15,2013-05-20 18:11:00,
2013-05-20 14:16:00,77.0,70.7,30.06,SW,218,3.0,3.0,81,0.00,,,0.00,Wunderground v.1.15,2013-05-20 18:16:00,
2013-05-20 14:21:00,77.8,70.8,30.05,East,96,2.0,5.0,79,0.00,,,0.00,Wunderground v.1.15,2013-05-20 18:21:00,
2013-05-20 14:26:00,77.9,70.1,30.05,East,85,2.0,5.0,77,0.00,,,0.00,Wunderground v.1.15,2013-05-20 18:26:00,
2013-05-20 14:31:00,78.5,71.1,30.05,East,86,1.0,3.0,78,0.00,,,0.00,Wunderground v.1.15,2013-05-20 18:31:00,
2013-05-20 14:36:00,79.1,71.6,30.04,SE,144,2.0,3.0,78,0.00,,,0.00,Wunderground v.1.15,2013-05-20 18:36:00,
2013-05-20 14:41:00,78.3,70.9,30.04,SSE,168,2.0,3.0,78,0.00,,,0.00,Wunderground v.1.15,2013-05-20 18:41:00,
2013-05-20 14:46:00,77.6,70.2,30.04,WSW,257,0.0,3.0,78,0.00,,,0.00,Wunderground v.1.15,2013-05-20 18:46:00,
2013-05-20 14:51:00,78.8,72.5,30.04,SW,215,4.0,4.0,81,0.00,,,0.00,Wunderground v.1.15,2013-05-20 18:51:00,
2013-05-20 14:56:00,78.8,70.6,30.04,SW,217,3.0,7.0,76,0.00,,,0.00,Wunderground v.1.15,2013-05-20 18:56:00,
2013-05-20 15:01:00,77.5,69.7,30.03,ENE,68,0.0,5.0,77,0.00,,,0.00,Wunderground v.1.15,2013-05-20 19:01:00,
2013-05-20 15:06:00,77.9,71.2,30.03,SSW,201,1.0,5.0,80,0.00,,,0.00,Wunderground v.1.15,2013-05-20 19:06:00,
2013-05-20 15:11:00,78.8,70.6,30.03,SW,236,1.0,3.0,76,0.00,,,0.00,Wunderground v.1.15,2013-05-20 19:11:00,
2013-05-20 15:17:00,79.2,71.4,30.03,ESE,123,0.0,3.0,77,0.00,,,0.00,Wunderground v.1.15,2013-05-20 19:17:00,
2013-05-20 15:22:00,79.3,71.5,30.03,SSW,207,7.0,8.0,77,0.00,,,0.00,Wunderground v.1.15,2013-05-20 19:22:00,
2013-05-20 15:27:00,79.3,71.1,30.03,SW,234,3.0,8.0,76,0.00,,,0.00,Wunderground v.1.15,2013-05-20 19:27:00,
2013-05-20 15:32:00,78.9,70.3,30.03,SSW,192,4.0,4.0,75,0.00,,,0.00,Wunderground v.1.15,2013-05-20 19:32:00,
2013-05-20 15:37:00,78.8,69.8,30.02,SE,140,0.0,4.0,74,0.00,,,0.00,Wunderground v.1.15,2013-05-20 19:37:00,
2013-05-20 15:42:00,78.5,69.9,30.03,SE,136,1.0,4.0,75,0.00,,,0.00,Wunderground v.1.15,2013-05-20 19:42:00,
2013-05-20 15:47:00,78.8,70.2,30.02,ESE,123,1.0,4.0,75,0.00,,,0.00,Wunderground v.1.15,2013-05-20 19:47:00,
2013-05-20 15:52:00,77.9,69.3,30.02,SE,142,1.0,4.0,75,0.00,,,0.00,Wunderground v.1.15,2013-05-20 19:52:00,
2013-05-20 15:57:00,78.6,69.6,30.02,South,187,1.0,4.0,74,0.00,,,0.00,Wunderground v.1.15,2013-05-20 19:57:00,
2013-05-20 16:02:00,79.2,69.8,30.02,South,174,1.0,5.0,73,0.00,,,0.00,Wunderground v.1.15,2013-05-20 20:02:00,
2013-05-20 16:07:00,78.7,69.7,30.02,SW,224,2.0,6.0,74,0.00,,,0.00,Wunderground v.1.15,2013-05-20 20:07:00,
2013-05-20 16:12:00,79.3,70.3,30.01,South,188,6.0,6.0,74,0.00,,,0.00,Wunderground v.1.15,2013-05-20 20:12:00,
2013-05-20 16:17:00,79.5,70.1,30.01,SSW,199,0.0,9.0,73,0.00,,,0.00,Wunderground v.1.15,2013-05-20 20:17:00,
2013-05-20 16:22:00,79.9,68.0,30.01,South,182,1.0,4.0,67,0.00,,,0.00,Wunderground v.1.15,2013-05-20 20:22:00,
2013-05-20 16:27:00,80.1,69.4,30.01,WSW,251,0.0,8.0,70,0.00,,,0.00,Wunderground v.1.15,2013-05-20 20:27:00,
2013-05-20 16:32:00,80.1,69.4,30.01,South,183,2.0,4.0,70,0.00,,,0.00,Wunderground v.1.15,2013-05-20 20:32:00,
2013-05-20 16:37:00,79.7,68.6,30.01,SSW,194,1.0,6.0,69,0.00,,,0.00,Wunderground v.1.15,2013-05-20 20:37:00,
2013-05-20 16:43:00,79.6,69.0,30.01,NW,307,1.0,2.0,70,0.00,,,0.00,Wunderground v.1.15,2013-05-20 20:43:00,
2013-05-20 16:48:00,80.2,69.1,30.01,West,271,2.0,2.0,69,0.00,,,0.00,Wunderground v.1.15,2013-05-20 20:48:00,
2013-05-20 16:53:00,80.0,69.7,30.00,SSW,194,1.0,3.0,71,0.00,,,0.00,Wunderground v.1.15,2013-05-20 20:53:00,
2013-05-20 16:58:00,80.7,70.0,30.00,ENE,67,5.0,8.0,70,0.00,,,0.00,Wunderground v.1.15,2013-05-20 20:58:00,
2013-05-20 17:03:00,81.1,69.1,30.00,SE,132,2.0,2.0,67,0.00,,,0.00,Wunderground v.1.15,2013-05-20 21:03:00,
2013-05-20 17:08:00,80.8,70.5,30.00,NE,45,0.0,3.0,71,0.00,,,0.00,Wunderground v.1.15,2013-05-20 21:08:00,
2013-05-20 17:13:00,81.0,70.3,30.00,NE,44,2.0,2.0,70,0.00,,,0.00,Wunderground v.1.15,2013-05-20 21:13:00,
2013-05-20 17:18:00,81.1,70.0,30.00,NE,38,2.0,3.0,69,0.00,,,0.00,Wunderground v.1.15,2013-05-20 21:18:00,
2013-05-20 17:23:00,81.2,69.2,30.00,SW,225,3.0,5.0,67,0.00,,,0.00,Wunderground v.1.15,2013-05-20 21:23:00,
2013-05-20 17:28:00,81.5,69.5,30.00,SSW,211,1.0,6.0,67,0.00,,,0.00,Wunderground v.1.15,2013-05-20 21:28:00,
2013-05-20 17:33:00,82.0,70.4,30.00,SSW,211,2.0,4.0,68,0.00,,,0.00,Wunderground v.1.15,2013-05-20 21:33:00,
2013-05-20 17:38:00,81.7,70.5,30.00,West,280,0.0,5.0,69,0.00,,,0.00,Wunderground v.1.15,2013-05-20 21:38:00,
2013-05-20 17:43:00,81.3,69.7,30.00,NE,36,1.0,5.0,68,0.00,,,0.00,Wunderground v.1.15,2013-05-20 21:43:00,
2013-05-20 17:48:00,81.3,70.2,30.00,WSW,240,1.0,5.0,69,0.00,,,0.00,Wunderground v.1.15,2013-05-20 21:48:00,
2013-05-20 17:53:00,80.7,69.2,30.00,South,190,1.0,4.0,68,0.00,,,0.00,Wunderground v.1.15,2013-05-20 21:53:00,
2013-05-20 17:58:00,80.6,69.9,30.00,SSE,168,3.0,4.0,70,0.00,,,0.00,Wunderground v.1.15,2013-05-20 21:58:00,
2013-05-20 18:03:00,80.3,69.6,30.00,South,188,2.0,3.0,70,0.00,,,0.00,Wunderground v.1.15,2013-05-20 22:03:00,
2013-05-20 18:08:00,79.1,68.9,30.00,SSW,193,0.0,3.0,71,0.00,,,0.00,Wunderground v.1.15,2013-05-20 22:08:00,
2013-05-20 18:13:00,78.7,68.9,30.00,SW,236,2.0,4.0,72,0.00,,,0.00,Wunderground v.1.15,2013-05-20 22:13:00,
2013-05-20 18:18:00,78.8,69.4,30.00,SW,217,0.0,4.0,73,0.00,,,0.00,Wunderground v.1.15,2013-05-20 22:18:00,
2013-05-20 18:23:00,78.8,69.0,30.00,SSW,212,1.0,5.0,72,0.00,,,0.00,Wunderground v.1.15,2013-05-20 22:23:00,
2013-05-20 18:28:00,78.8,69.0,30.00,SSW,203,2.0,5.0,72,0.00,,,0.00,Wunderground v.1.15,2013-05-20 22:28:00,
2013-05-20 18:33:00,78.5,68.7,30.00,SW,219,3.0,5.0,72,0.00,,,0.00,Wunderground v.1.15,2013-05-20 22:33:00,
2013-05-20 18:39:00,78.4,69.0,30.00,SW,227,1.0,7.0,73,0.00,,,0.00,Wunderground v.1.15,2013-05-20 22:39:00,
2013-05-20 18:44:00,78.4,69.0,30.00,SW,229,0.0,7.0,73,0.00,,,0.00,Wunderground v.1.15,2013-05-20 22:44:00,
2013-05-20 18:49:00,78.5,69.5,30.00,SW,229,3.0,7.0,74,0.00,,,0.00,Wunderground v.1.15,2013-05-20 22:49:00,
2013-05-20 18:54:00,78.2,69.6,30.00,SW,229,0.0,1.0,75,0.00,,,0.00,Wunderground v.1.15,2013-05-20 22:54:00,
2013-05-20 18:59:00,78.1,69.1,30.00,SW,229,2.0,2.0,74,0.00,,,0.00,Wunderground v.1.15,2013-05-20 22:59:00,
2013-05-20 19:04:00,78.0,69.4,30.00,SW,229,0.0,2.0,75,0.00,,,0.00,Wunderground v.1.15,2013-05-20 23:04:00,
2013-05-20 19:09:00,78.0,69.4,30.00,SW,229,0.0,2.0,75,0.00,,,0.00,Wunderground v.1.15,2013-05-20 23:09:00,
2013-05-20 19:14:00,77.9,68.9,30.00,SW,229,0.0,3.0,74,0.00,,,0.00,Wunderground v.1.15,2013-05-20 23:14:00,
2013-05-20 19:19:00,77.6,69.0,30.00,WSW,244,1.0,3.0,75,0.00,,,0.00,Wunderground v.1.15,2013-05-20 23:19:00,
2013-05-20 19:24:00,77.3,69.1,30.00,WSW,244,0.0,1.0,76,0.00,,,0.00,Wunderground v.1.15,2013-05-20 23:24:00,
2013-05-20 19:29:00,76.9,69.1,30.00,WSW,244,0.0,2.0,77,0.00,,,0.00,Wunderground v.1.15,2013-05-20 23:29:00,
2013-05-20 19:34:00,77.1,68.9,30.00,WSW,244,0.0,1.0,76,0.00,,,0.00,Wunderground v.1.15,2013-05-20 23:34:00,
2013-05-20 19:39:00,77.0,68.9,29.99,WSW,244,1.0,1.0,76,0.00,,,0.00,Wunderground v.1.15,2013-05-20 23:39:00,
2013-05-20 19:44:00,76.8,69.0,29.99,South,181,1.0,4.0,77,0.00,,,0.00,Wunderground v.1.15,2013-05-20 23:44:00,
2013-05-20 19:49:00,76.5,69.1,29.99,South,181,1.0,4.0,78,0.00,,,0.00,Wunderground v.1.15,2013-05-20 23:49:00,
2013-05-20 19:54:00,76.0,69.0,29.99,SSW,209,0.0,4.0,79,0.00,,,0.00,Wunderground v.1.15,2013-05-20 23:54:00,
2013-05-20 19:59:00,75.8,69.2,29.99,SSW,209,0.0,4.0,80,0.00,,,0.00,Wunderground v.1.15,2013-05-20 23:59:00,
2013-05-20 20:04:00,75.7,69.1,29.99,SSW,209,0.0,2.0,80,0.00,,,0.00,Wunderground v.1.15,2013-05-21 00:04:00,
2013-05-20 20:09:00,75.3,69.4,30.00,SSW,209,0.0,2.0,82,0.00,,,0.00,Wunderground v.1.15,2013-05-21 00:09:00,
2013-05-20 20:14:00,75.1,69.2,29.99,SSW,209,0.0,1.0,82,0.00,,,0.00,Wunderground v.1.15,2013-05-21 00:14:00,
2013-05-20 20:19:00,74.8,69.3,29.99,SSW,209,0.0,1.0,83,0.00,,,0.00,Wunderground v.1.15,2013-05-21 00:19:00,
2013-05-20 20:24:00,74.7,69.2,30.00,SSW,209,0.0,1.0,83,0.00,,,0.00,Wunderground v.1.15,2013-05-21 00:24:00,
2013-05-20 20:29:00,74.5,69.0,30.00,SSW,209,0.0,1.0,83,0.00,,,0.00,Wunderground v.1.15,2013-05-21 00:29:00,
2013-05-20 20:34:00,74.1,69.0,29.99,SSW,209,0.0,1.0,84,0.00,,,0.00,Wunderground v.1.15,2013-05-21 00:34:00,
2013-05-20 20:39:00,73.9,69.1,30.00,SSW,209,0.0,1.0,85,0.00,,,0.00,Wunderground v.1.15,2013-05-21 00:39:00,
2013-05-20 20:44:00,73.7,68.9,30.00,SSW,209,0.0,0.0,85,0.00,,,0.00,Wunderground v.1.15,2013-05-21 00:44:00,
2013-05-20 20:49:00,73.5,68.7,30.00,SSW,209,0.0,1.0,85,0.00,,,0.00,Wunderground v.1.15,2013-05-21 00:49:00,
2013-05-20 20:54:00,73.6,69.2,30.00,SSW,209,0.0,0.0,86,0.00,,,0.00,Wunderground v.1.15,2013-05-21 00:54:00,
2013-05-20 20:59:00,73.7,69.2,30.00,SSW,209,0.0,1.0,86,0.00,,,0.00,Wunderground v.1.15,2013-05-21 00:59:00,
2013-05-20 21:04:00,73.7,69.2,30.00,SSW,209,0.0,0.0,86,0.00,,,0.00,Wunderground v.1.15,2013-05-21 01:04:00,
2013-05-20 21:09:00,73.8,69.3,30.00,SSW,209,0.0,0.0,86,0.00,,,0.00,Wunderground v.1.15,2013-05-21 01:09:00,
2013-05-20 21:14:00,73.8,69.3,30.00,SSW,209,0.0,1.0,86,0.00,,,0.00,Wunderground v.1.15,2013-05-21 01:14:00,
2013-05-20 21:19:00,73.7,69.2,30.00,SSW,209,0.0,1.0,86,0.00,,,0.00,Wunderground v.1.15,2013-05-21 01:19:00,
2013-05-20 21:24:00,73.3,68.9,30.00,SSW,209,0.0,0.0,86,0.00,,,0.00,Wunderground v.1.15,2013-05-21 01:24:00,
2013-05-20 21:29:00,73.0,68.9,30.01,SSW,209,0.0,1.0,87,0.00,,,0.00,Wunderground v.1.15,2013-05-21 01:29:00,
2013-05-20 21:34:00,72.6,68.8,30.01,SSW,209,0.0,0.0,88,0.00,,,0.00,Wunderground v.1.15,2013-05-21 01:34:00,
2013-05-20 21:39:00,72.5,68.7,30.01,SSW,209,0.0,0.0,88,0.00,,,0.00,Wunderground v.1.15,2013-05-21 01:39:00,
2013-05-20 21:44:00,72.5,68.7,30.01,SSW,209,0.0,0.0,88,0.00,,,0.00,Wunderground v.1.15,2013-05-21 01:44:00,
2013-05-20 21:49:00,72.4,68.6,30.01,SSW,209,0.0,0.0,88,0.00,,,0.00,Wunderground v.1.15,2013-05-21 01:49:00,
2013-05-20 21:54:00,72.1,68.3,30.01,SSW,209,0.0,0.0,88,0.00,,,0.00,Wunderground v.1.15,2013-05-21 01:54:00,
2013-05-20 21:59:00,71.9,68.5,30.01,SSW,209,0.0,0.0,89,0.00,,,0.00,Wunderground v.1.15,2013-05-21 01:59:00,
2013-05-20 22:04:00,71.6,68.2,30.00,SSW,209,0.0,0.0,89,0.00,,,0.00,Wunderground v.1.15,2013-05-21 02:04:00,
2013-05-20 22:09:00,71.6,68.5,30.00,SSW,209,0.0,0.0,90,0.00,,,0.00,Wunderground v.1.15,2013-05-21 02:09:00,
2013-05-20 22:14:00,71.5,68.4,30.01,SSW,209,0.0,1.0,90,0.00,,,0.00,Wunderground v.1.15,2013-05-21 02:14:00,
2013-05-20 22:19:00,71.3,68.2,30.01,SSW,209,0.0,1.0,90,0.00,,,0.00,Wunderground v.1.15,2013-05-21 02:19:00,
2013-05-20 22:24:00,71.2,68.1,30.01,SSW,209,0.0,1.0,90,0.00,,,0.00,Wunderground v.1.15,2013-05-21 02:24:00,
2013-05-20 22:29:00,71.2,68.4,30.01,SSW,209,0.0,1.0,91,0.00,,,0.00,Wunderground v.1.15,2013-05-21 02:29:00,
2013-05-20 22:34:00,71.3,68.2,30.01,SSW,209,1.0,1.0,90,0.00,,,0.00,Wunderground v.1.15,2013-05-21 02:34:00,
2013-05-20 22:39:00,71.1,68.0,30.00,SSW,209,0.0,1.0,90,0.00,,,0.00,Wunderground v.1.15,2013-05-21 02:39:00,
2013-05-20 22:45:00,70.9,67.8,30.00,SSW,209,0.0,0.0,90,0.00,,,0.00,Wunderground v.1.15,2013-05-21 02:45:00,
2013-05-20 22:50:00,70.8,68.0,30.00,SSW,209,0.0,0.0,91,0.00,,,0.00,Wunderground v.1.15,2013-05-21 02:50:00,
2013-05-20 22:55:00,70.7,67.9,30.00,SSW,209,1.0,2.0,91,0.00,,,0.00,Wunderground v.1.15,2013-05-21 02:55:00,
2013-05-20 23:00:00,70.7,67.9,30.00,SSW,209,0.0,0.0,91,0.00,,,0.00,Wunderground v.1.15,2013-05-21 03:00:00,
2013-05-20 23:05:00,70.7,67.9,30.00,SSW,209,0.0,1.0,91,0.00,,,0.00,Wunderground v.1.15,2013-05-21 03:05:00,
2013-05-20 23:10:00,70.5,67.7,30.00,SSW,209,0.0,1.0,91,0.00,,,0.00,Wunderground v.1.15,2013-05-21 03:10:00,
2013-05-20 23:15:00,70.4,67.6,30.00,SSW,209,0.0,1.0,91,0.00,,,0.00,Wunderground v.1.15,2013-05-21 03:15:00,
2013-05-20 23:20:00,70.3,67.5,30.00,SSW,209,0.0,0.0,91,0.00,,,0.00,Wunderground v.1.15,2013-05-21 03:20:00,
2013-05-20 23:25:00,70.1,67.3,30.00,SSW,209,1.0,1.0,91,0.00,,,0.00,Wunderground v.1.15,2013-05-21 03:25:00,
2013-05-20 23:30:00,70.0,67.6,30.00,SSW,209,0.0,0.0,92,0.00,,,0.00,Wunderground v.1.15,2013-05-21 03:30:00,
2013-05-20 23:35:00,69.9,67.5,30.00,SSW,209,0.0,2.0,92,0.00,,,0.00,Wunderground v.1.15,2013-05-21 03:35:00,
2013-05-20 23:40:00,69.8,67.4,30.00,SSW,209,0.0,2.0,92,0.00,,,0.00,Wunderground v.1.15,2013-05-21 03:40:00,
2013-05-20 23:45:00,70.0,67.6,29.99,SSW,201,2.0,6.0,92,0.00,,,0.00,Wunderground v.1.15,2013-05-21 03:45:00,
2013-05-20 23:50:00,70.1,67.7,30.00,SSW,192,1.0,1.0,92,0.00,,,0.00,Wunderground v.1.15,2013-05-21 03:50:00,
2013-05-20 23:55:00,70.1,67.3,30.00,SSW,206,3.0,4.0,91,0.00,,,0.00,Wunderground v.1.15,2013-05-21 03:55:00,